Time;durP1;ratioP1;P1;durP2;ratioP2;P2;SDS_P1;SDS_P2;PMS_P1;PMS_P2;Temp;Humidity;BMP_temperature;BMP_pressure;BME280_temperature;BME280_humidity;BME280_pressure;Samples;Min_cycle;Max_cycle;Signal;HPM_P1;HPM_P2
2023/09/30 00:00:11;;;;;;;21.85;12.50;;;12.00;99.90;;;;;;4944423;28;20035;-81
2023/09/30 00:02:38;;;;;;;28.33;12.25;;;12.00;99.90;;;;;;4960076;28;20047;-80
2023/09/30 00:05:05;;;;;;;26.80;12.13;;;11.90;99.90;;;;;;4946571;28;20074;-81
2023/09/30 00:07:33;;;;;;;17.67;9.85;;;11.90;99.90;;;;;;4949539;28;20058;-79
2023/09/30 00:10:00;;;;;;;24.48;10.27;;;11.90;99.90;;;;;;4945785;28;20079;-80
2023/09/30 00:12:27;;;;;;;21.38;10.43;;;11.90;99.90;;;;;;4930576;28;20227;-81
2023/09/30 00:14:54;;;;;;;19.25;11.70;;;11.90;99.90;;;;;;4941332;28;20039;-80
2023/09/30 00:17:21;;;;;;;25.08;11.77;;;11.90;99.90;;;;;;4929846;28;20103;-81
2023/09/30 00:19:48;;;;;;;16.02;9.65;;;11.80;99.90;;;;;;4914058;28;20043;-81
2023/09/30 00:22:15;;;;;;;24.52;10.52;;;11.80;99.90;;;;;;4958706;28;20039;-80
2023/09/30 00:24:42;;;;;;;18.85;10.57;;;11.80;99.90;;;;;;4937120;28;20047;-81
2023/09/30 00:27:09;;;;;;;18.92;10.80;;;11.80;99.90;;;;;;4931448;28;20110;-81
2023/09/30 00:29:36;;;;;;;22.65;9.82;;;11.80;99.90;;;;;;4936903;28;20047;-80
2023/09/30 00:32:03;;;;;;;20.80;10.13;;;11.80;99.90;;;;;;4945796;28;20527;-79
2023/09/30 00:34:34;;;;;;;20.02;10.27;;;11.90;99.90;;;;;;4954918;28;20222;-81
2023/09/30 00:37:02;;;;;;;29.00;10.75;;;11.90;99.90;;;;;;4948229;28;20576;-80
2023/09/30 00:39:32;;;;;;;21.52;10.90;;;12.00;99.90;;;;;;4945080;28;20054;-81
2023/09/30 00:42:00;;;;;;;22.05;10.20;;;12.00;99.90;;;;;;4959424;28;20081;-80
2023/09/30 00:44:28;;;;;;;23.10;11.10;;;12.00;99.90;;;;;;4963301;28;20042;-81
2023/09/30 00:46:55;;;;;;;22.40;10.93;;;12.00;99.90;;;;;;4947591;28;20787;-81
2023/09/30 00:49:26;;;;;;;25.73;12.48;;;12.10;99.90;;;;;;4938016;28;20303;-80
2023/09/30 00:51:54;;;;;;;23.10;11.55;;;12.00;99.90;;;;;;4950497;28;20066;-79
2023/09/30 00:54:24;;;;;;;19.30;11.93;;;11.90;99.90;;;;;;4953147;28;20465;-80
2023/09/30 00:56:55;;;;;;;22.90;13.05;;;11.90;99.90;;;;;;4960189;28;20218;-79
2023/09/30 00:59:23;;;;;;;21.67;13.75;;;11.90;99.90;;;;;;4954697;28;20062;-81
2023/09/30 01:01:50;;;;;;;23.60;14.52;;;11.80;99.90;;;;;;4979162;28;20137;-79
2023/09/30 01:04:17;;;;;;;26.67;14.02;;;11.80;99.90;;;;;;4984893;28;20054;-79
2023/09/30 01:06:45;;;;;;;24.25;13.73;;;11.80;99.90;;;;;;4974288;28;20047;-80
2023/09/30 01:09:12;;;;;;;28.80;15.32;;;11.80;99.90;;;;;;4974395;28;20309;-79
2023/09/30 01:11:40;;;;;;;27.92;15.93;;;11.70;99.90;;;;;;4937964;28;20074;-79
2023/09/30 01:14:27;;;;;;;29.60;16.05;;;11.70;99.90;;;;;;4962211;28;20740;-80
2023/09/30 01:16:55;;;;;;;25.30;16.05;;;11.60;99.90;;;;;;4964078;28;20069;-79
2023/09/30 01:19:25;;;;;;;30.95;16.00;;;11.60;99.90;;;;;;4950230;28;20745;-81
2023/09/30 01:21:58;;;;;;;33.53;16.38;;;11.60;99.90;;;;;;4951899;28;20121;-80
2023/09/30 01:24:29;;;;;;;32.45;15.95;;;11.60;99.90;;;;;;4952596;28;20038;-80
2023/09/30 01:26:56;;;;;;;32.30;17.60;;;11.50;99.90;;;;;;4951670;28;20051;-80
2023/09/30 01:29:26;;;;;;;33.42;18.27;;;11.60;99.90;;;;;;4937761;28;20038;-79
2023/09/30 01:31:53;;;;;;;30.67;17.40;;;11.50;99.90;;;;;;4951188;28;20051;-78
2023/09/30 01:34:21;;;;;;;33.17;16.55;;;11.60;99.90;;;;;;4963299;28;20038;-79
2023/09/30 01:36:49;;;;;;;27.08;17.48;;;11.70;99.90;;;;;;4933907;28;20508;-82
2023/09/30 01:39:16;;;;;;;35.47;17.30;;;11.80;99.90;;;;;;4953254;28;20271;-83
2023/09/30 01:41:45;;;;;;;34.90;17.60;;;11.70;99.90;;;;;;4948914;28;20047;-81
2023/09/30 01:44:12;;;;;;;30.75;17.05;;;11.60;99.90;;;;;;4949358;28;20063;-79
2023/09/30 01:46:39;;;;;;;33.25;19.58;;;11.70;99.90;;;;;;4930766;28;20046;-79
2023/09/30 01:49:06;;;;;;;39.45;18.70;;;11.80;99.90;;;;;;4936065;28;20055;-78
2023/09/30 01:51:33;;;;;;;41.15;19.00;;;11.80;99.90;;;;;;4931835;28;20555;-81
2023/09/30 01:54:00;;;;;;;43.00;19.15;;;11.80;99.90;;;;;;4959390;28;20035;-80
2023/09/30 01:56:26;;;;;;;41.15;20.48;;;11.90;99.90;;;;;;4951760;28;20072;-80
2023/09/30 01:58:54;;;;;;;37.75;20.23;;;12.00;99.90;;;;;;4946974;28;20118;-80
2023/09/30 02:01:21;;;;;;;42.75;20.88;;;12.00;99.90;;;;;;4976517;28;20102;-80
2023/09/30 02:03:50;;;;;;;36.42;19.88;;;12.00;99.90;;;;;;4972835;28;20115;-79
2023/09/30 02:06:17;;;;;;;33.95;18.80;;;12.00;99.90;;;;;;4956017;28;20051;-79
2023/09/30 02:08:44;;;;;;;26.58;18.77;;;12.10;99.90;;;;;;4954503;28;20200;-80
2023/09/30 02:11:13;;;;;;;35.42;20.50;;;12.10;99.90;;;;;;4936606;28;21303;-80
2023/09/30 02:13:42;;;;;;;31.75;18.67;;;12.10;99.90;;;;;;4937426;28;20039;-79
2023/09/30 02:16:13;;;;;;;29.52;19.55;;;12.10;99.90;;;;;;4930948;28;20077;-80
2023/09/30 02:18:44;;;;;;;35.10;19.30;;;12.00;99.90;;;;;;4956041;28;20054;-79
2023/09/30 02:21:11;;;;;;;32.00;18.30;;;12.10;99.90;;;;;;4962330;28;20047;-81
2023/09/30 02:23:38;;;;;;;32.05;19.05;;;12.10;99.90;;;;;;4952607;28;20047;-78
2023/09/30 02:26:06;;;;;;;33.55;18.13;;;12.30;99.90;;;;;;4959721;28;20061;-79
2023/09/30 02:28:34;;;;;;;34.65;18.48;;;12.30;99.90;;;;;;4936421;28;20156;-80
2023/09/30 02:31:01;;;;;;;39.08;17.58;;;12.20;99.90;;;;;;4947427;28;20058;-80
2023/09/30 02:33:28;;;;;;;26.30;16.33;;;12.20;99.90;;;;;;4951482;28;20294;-79
2023/09/30 02:35:57;;;;;;;32.20;15.38;;;12.20;99.90;;;;;;4960587;28;20126;-80
2023/09/30 02:38:25;;;;;;;32.53;16.25;;;12.20;99.90;;;;;;4952537;28;20047;-78
2023/09/30 02:40:51;;;;;;;35.85;17.10;;;12.10;99.90;;;;;;4935670;28;20086;-79
2023/09/30 02:43:19;;;;;;;24.00;16.60;;;12.10;99.90;;;;;;4933066;28;20051;-80
2023/09/30 02:45:47;;;;;;;30.98;17.25;;;12.10;99.90;;;;;;4936119;28;20749;-80
2023/09/30 02:48:15;;;;;;;32.72;16.77;;;12.10;99.90;;;;;;4972870;28;20936;-79
2023/09/30 02:50:46;;;;;;;28.80;16.85;;;12.10;99.90;;;;;;4973722;28;20555;-79
2023/09/30 02:53:13;;;;;;;31.42;17.38;;;12.20;99.90;;;;;;4949699;28;20050;-80
2023/09/30 02:55:41;;;;;;;32.78;17.90;;;12.20;99.90;;;;;;4946664;28;20493;-80
2023/09/30 02:58:10;;;;;;;35.13;17.70;;;12.20;99.90;;;;;;4961392;28;20047;-80
2023/09/30 03:00:37;;;;;;;34.65;18.55;;;12.20;99.90;;;;;;4949708;28;20046;-79
2023/09/30 03:03:05;;;;;;;31.15;18.48;;;12.20;99.90;;;;;;4964072;28;20054;-80
2023/09/30 03:05:33;;;;;;;37.92;18.88;;;12.30;99.90;;;;;;4954372;28;20111;-79
2023/09/30 03:08:00;;;;;;;31.48;18.70;;;12.30;99.90;;;;;;4952092;28;20050;-80
2023/09/30 03:10:28;;;;;;;26.38;19.35;;;12.30;99.90;;;;;;4950468;28;20058;-79
2023/09/30 03:13:01;;;;;;;33.03;18.42;;;12.20;99.90;;;;;;4962225;28;20070;-80
2023/09/30 03:15:30;;;;;;;31.40;19.15;;;12.20;99.90;;;;;;4977167;28;20061;-79
2023/09/30 03:17:59;;;;;;;35.25;18.30;;;12.20;99.90;;;;;;4947484;28;20201;-79
2023/09/30 03:20:26;;;;;;;35.30;18.42;;;12.10;99.90;;;;;;4949103;28;20042;-79
2023/09/30 03:22:53;;;;;;;39.17;20.30;;;12.10;99.90;;;;;;4956796;28;20137;-79
2023/09/30 03:25:20;;;;;;;41.50;19.63;;;12.10;99.90;;;;;;4959590;28;20297;-80
2023/09/30 03:27:48;;;;;;;33.83;18.95;;;12.10;99.90;;;;;;4951136;28;20187;-80
2023/09/30 03:30:16;;;;;;;43.65;21.92;;;12.20;99.90;;;;;;4948699;28;20069;-80
2023/09/30 03:32:44;;;;;;;38.53;20.88;;;12.30;99.90;;;;;;4954608;28;20051;-79
2023/09/30 03:35:16;;;;;;;33.65;20.55;;;12.20;99.90;;;;;;4947076;28;20043;-80
2023/09/30 03:37:48;;;;;;;56.60;24.83;;;12.20;99.90;;;;;;4960780;28;20698;-78
2023/09/30 03:40:18;;;;;;;41.42;23.45;;;12.20;99.90;;;;;;4948758;28;20043;-80
2023/09/30 03:42:57;;;;;;;42.08;25.35;;;12.20;99.90;;;;;;4951337;28;20043;-80
2023/09/30 03:45:23;;;;;;;51.40;23.77;;;12.20;99.90;;;;;;4952074;28;20054;-80
2023/09/30 03:47:51;;;;;;;57.20;23.90;;;12.20;99.90;;;;;;4962008;28;20050;-79
2023/09/30 03:50:18;;;;;;;45.20;23.75;;;12.20;99.90;;;;;;4962788;28;20063;-79
2023/09/30 03:52:45;;;;;;;44.70;22.50;;;12.10;99.90;;;;;;4984939;28;20034;-79
2023/09/30 03:55:15;;;;;;;43.85;22.73;;;12.10;99.90;;;;;;4962289;28;20043;-79
2023/09/30 03:57:43;;;;;;;39.42;20.40;;;12.20;99.90;;;;;;4937488;28;20059;-80
2023/09/30 04:00:15;;;;;;;36.08;21.33;;;12.10;99.90;;;;;;4950684;28;20039;-79
2023/09/30 04:02:43;;;;;;;45.22;21.98;;;12.00;99.90;;;;;;4976906;28;20054;-79
2023/09/30 04:05:12;;;;;;;42.28;21.65;;;12.10;99.90;;;;;;4950597;28;20053;-79
2023/09/30 04:07:40;;;;;;;36.83;21.17;;;12.10;99.90;;;;;;4956682;28;20096;-79
2023/09/30 04:10:10;;;;;;;42.35;21.25;;;12.10;99.90;;;;;;4951960;28;20050;-78
2023/09/30 04:12:36;;;;;;;39.33;19.67;;;12.10;99.90;;;;;;4968004;28;20046;-79
2023/09/30 04:15:04;;;;;;;32.67;19.77;;;12.10;99.90;;;;;;4947882;28;20050;-78
2023/09/30 04:17:31;;;;;;;30.85;19.92;;;12.10;99.90;;;;;;4957002;28;20031;-80
2023/09/30 04:19:58;;;;;;;40.17;19.95;;;12.10;99.90;;;;;;4951554;28;21072;-80
2023/09/30 04:22:28;;;;;;;37.20;20.75;;;12.20;99.90;;;;;;4961672;28;20134;-79
2023/09/30 04:24:55;;;;;;;33.70;20.40;;;12.20;99.90;;;;;;4965494;28;20706;-80
2023/09/30 04:27:22;;;;;;;38.47;21.33;;;12.10;99.90;;;;;;4975691;28;20065;-79
2023/09/30 04:29:49;;;;;;;43.83;22.67;;;12.20;99.90;;;;;;4964761;28;20054;-78
2023/09/30 04:32:16;;;;;;;42.28;22.55;;;12.10;99.90;;;;;;4961504;28;20043;-78
2023/09/30 04:34:43;;;;;;;37.63;22.55;;;12.00;99.90;;;;;;4948833;28;20043;-79
2023/09/30 04:37:15;;;;;;;40.47;21.98;;;12.10;99.90;;;;;;4958792;28;20471;-80
2023/09/30 04:39:43;;;;;;;42.75;24.10;;;12.10;99.90;;;;;;4984130;28;20109;-80
2023/09/30 04:42:11;;;;;;;41.42;23.30;;;12.00;99.90;;;;;;4967676;28;20049;-80
2023/09/30 04:44:38;;;;;;;50.65;24.63;;;12.00;99.90;;;;;;4946939;28;20109;-79
2023/09/30 04:47:05;;;;;;;42.72;23.63;;;12.00;99.90;;;;;;4951329;28;20054;-78
2023/09/30 04:49:32;;;;;;;46.05;24.40;;;12.00;99.90;;;;;;4946967;28;20058;-79
2023/09/30 04:52:00;;;;;;;39.97;22.55;;;12.00;99.90;;;;;;4965049;28;20050;-80
2023/09/30 04:54:29;;;;;;;42.75;23.60;;;12.00;99.90;;;;;;4974363;28;20157;-80
2023/09/30 04:56:56;;;;;;;44.72;24.77;;;12.00;99.90;;;;;;4950818;28;20391;-80
2023/09/30 04:59:25;;;;;;;42.47;23.90;;;12.00;99.90;;;;;;4953710;28;20073;-80
2023/09/30 05:01:52;;;;;;;48.53;24.80;;;11.90;99.90;;;;;;4953102;28;20521;-79
2023/09/30 05:04:18;;;;;;;42.80;23.63;;;12.00;99.90;;;;;;4961112;28;20465;-79
2023/09/30 05:06:45;;;;;;;43.65;25.50;;;12.00;99.90;;;;;;4963165;28;20535;-80
2023/09/30 05:09:12;;;;;;;46.17;24.52;;;12.00;99.90;;;;;;4964293;28;20055;-79
2023/09/30 05:11:39;;;;;;;36.40;23.55;;;11.90;99.90;;;;;;4953493;28;20050;-80
2023/09/30 05:14:06;;;;;;;44.53;24.02;;;12.00;99.90;;;;;;4939977;28;20082;-79
2023/09/30 05:16:33;;;;;;;42.92;25.58;;;11.90;99.90;;;;;;4964791;28;20058;-79
2023/09/30 05:19:00;;;;;;;37.90;24.23;;;11.90;99.90;;;;;;4950404;28;20046;-79
2023/09/30 05:21:27;;;;;;;46.33;24.20;;;11.90;99.90;;;;;;4953231;28;21187;-79
2023/09/30 05:23:54;;;;;;;40.35;24.35;;;11.90;99.90;;;;;;4956130;28;20047;-79
2023/09/30 05:26:21;;;;;;;45.13;22.85;;;11.90;99.90;;;;;;4964524;28;20702;-80
2023/09/30 05:28:47;;;;;;;42.92;23.20;;;11.90;99.90;;;;;;4937661;28;20058;-81
2023/09/30 05:31:14;;;;;;;43.25;22.88;;;11.80;99.90;;;;;;4931994;28;20075;-80
2023/09/30 05:33:41;;;;;;;46.10;22.40;;;11.70;99.90;;;;;;4972728;28;20106;-79
2023/09/30 05:36:08;;;;;;;41.60;22.58;;;11.90;99.90;;;;;;4949926;28;20122;-79
2023/09/30 05:38:35;;;;;;;38.88;23.33;;;11.90;99.90;;;;;;4963438;28;20094;-79
2023/09/30 05:41:02;;;;;;;41.85;22.15;;;11.80;99.90;;;;;;4964317;28;20042;-80
2023/09/30 05:43:30;;;;;;;42.13;22.63;;;11.70;99.90;;;;;;4947146;28;21628;-80
2023/09/30 05:45:56;;;;;;;50.00;22.60;;;11.70;99.90;;;;;;4947821;28;20043;-81
2023/09/30 05:48:28;;;;;;;45.80;22.77;;;11.70;99.90;;;;;;4952184;28;20705;-81
2023/09/30 05:50:55;;;;;;;47.42;23.80;;;11.70;99.90;;;;;;4950682;28;20525;-80
2023/09/30 05:53:22;;;;;;;50.05;21.88;;;11.70;99.90;;;;;;4976738;28;20058;-80
2023/09/30 05:55:50;;;;;;;45.95;22.85;;;11.60;99.90;;;;;;4934300;28;20050;-80
2023/09/30 05:58:17;;;;;;;39.30;21.17;;;11.60;99.90;;;;;;4932489;28;20056;-78
2023/09/30 06:00:45;;;;;;;37.25;21.48;;;11.60;99.90;;;;;;4941446;28;20039;-80
2023/09/30 06:03:12;;;;;;;38.60;20.30;;;11.60;99.90;;;;;;4934684;28;20055;-78
2023/09/30 06:05:41;;;;;;;43.38;21.65;;;11.60;99.90;;;;;;4950206;28;20654;-80
2023/09/30 06:08:10;;;;;;;43.67;21.95;;;11.80;99.90;;;;;;4952506;28;20119;-80
2023/09/30 06:10:42;;;;;;;38.70;22.42;;;11.80;99.90;;;;;;4953584;28;20126;-80
2023/09/30 06:13:10;;;;;;;30.65;20.00;;;11.80;99.90;;;;;;4959951;28;20089;-80
2023/09/30 06:15:41;;;;;;;47.47;21.55;;;11.80;99.90;;;;;;4912741;28;1133255;-80
2023/09/30 06:18:13;;;;;;;42.05;21.70;;;11.80;99.90;;;;;;4950548;28;20054;-81
2023/09/30 06:20:41;;;;;;;30.98;20.48;;;11.80;99.90;;;;;;4938996;28;20619;-80
2023/09/30 06:23:09;;;;;;;43.72;21.88;;;11.90;99.90;;;;;;4952893;28;20078;-80
2023/09/30 06:25:36;;;;;;;34.45;22.13;;;11.90;99.90;;;;;;4938163;28;20110;-81
2023/09/30 06:28:03;;;;;;;40.60;21.52;;;12.00;99.90;;;;;;4952745;28;20047;-78
2023/09/30 06:30:33;;;;;;;35.67;22.50;;;12.10;99.90;;;;;;4931719;28;20059;-79
2023/09/30 06:33:01;;;;;;;39.05;21.05;;;12.10;99.90;;;;;;4954711;28;20061;-79
2023/09/30 06:35:37;;;;;;;36.28;21.15;;;12.00;99.90;;;;;;4959586;28;20053;-81
2023/09/30 06:38:06;;;;;;;38.00;22.58;;;11.90;99.90;;;;;;4930473;28;20541;-81
2023/09/30 06:40:34;;;;;;;39.85;24.58;;;11.80;99.90;;;;;;4948132;28;20057;-81
2023/09/30 06:43:05;;;;;;;45.70;24.20;;;11.80;99.90;;;;;;4961763;28;20632;-81
2023/09/30 06:45:32;;;;;;;45.47;24.80;;;11.80;99.90;;;;;;4946152;28;20062;-81
2023/09/30 06:48:00;;;;;;;37.17;24.23;;;11.70;99.90;;;;;;4960418;28;20057;-81
2023/09/30 06:50:26;;;;;;;38.72;23.73;;;11.70;99.90;;;;;;4955043;28;20153;-79
2023/09/30 06:52:53;;;;;;;43.40;23.70;;;11.70;99.90;;;;;;4932375;28;20054;-80
2023/09/30 06:55:20;;;;;;;37.70;23.23;;;11.80;99.90;;;;;;4943239;28;20093;-79
2023/09/30 06:57:47;;;;;;;37.67;21.17;;;11.80;99.90;;;;;;4975827;28;20153;-78
2023/09/30 07:00:14;;;;;;;40.75;21.10;;;11.90;99.90;;;;;;4938907;28;20051;-79
2023/09/30 07:02:42;;;;;;;34.22;19.80;;;12.00;99.90;;;;;;4979425;28;20506;-78
2023/09/30 07:05:11;;;;;;;29.13;18.65;;;12.00;99.90;;;;;;4950571;28;20054;-77
2023/09/30 07:07:45;;;;;;;41.38;20.85;;;12.20;99.90;;;;;;4960203;28;20680;-79
2023/09/30 07:10:13;;;;;;;32.37;18.67;;;12.30;99.90;;;;;;4948758;28;20455;-79
2023/09/30 07:12:40;;;;;;;23.60;16.55;;;12.30;99.90;;;;;;4943886;28;20372;-79
2023/09/30 07:15:08;;;;;;;29.13;16.58;;;12.40;99.90;;;;;;4955683;28;20150;-78
2023/09/30 07:17:36;;;;;;;31.17;15.40;;;12.40;99.90;;;;;;4942506;28;20129;-78
2023/09/30 07:20:04;;;;;;;36.08;15.43;;;12.70;99.90;;;;;;4943791;28;20055;-79
2023/09/30 07:22:32;;;;;;;33.13;13.93;;;12.70;99.90;;;;;;4928241;28;20058;-78
2023/09/30 07:25:18;;;;;;;27.67;12.27;;;12.80;99.90;;;;;;4951799;28;20567;-80
2023/09/30 07:27:46;;;;;;;36.58;13.75;;;13.00;99.90;;;;;;4925637;28;20663;-79
2023/09/30 07:30:14;;;;;;;28.95;13.98;;;13.20;99.90;;;;;;4939892;28;20735;-79
2023/09/30 07:32:43;;;;;;;32.25;13.82;;;13.30;99.90;;;;;;4930873;28;20065;-79
2023/09/30 07:35:11;;;;;;;27.98;14.10;;;13.40;99.90;;;;;;4941693;28;20109;-79
2023/09/30 07:37:37;;;;;;;26.83;14.07;;;13.50;99.90;;;;;;4957059;28;20050;-80
2023/09/30 07:40:06;;;;;;;29.35;14.82;;;13.60;99.90;;;;;;4932811;28;20051;-79
2023/09/30 07:42:33;;;;;;;30.75;13.95;;;13.70;99.90;;;;;;4943635;28;20043;-79
2023/09/30 07:45:01;;;;;;;28.63;15.65;;;13.80;99.90;;;;;;4928204;28;20046;-78
2023/09/30 07:47:27;;;;;;;30.83;16.08;;;13.80;99.90;;;;;;4957244;28;20058;-79
2023/09/30 07:49:54;;;;;;;35.70;16.40;;;13.90;99.90;;;;;;4981771;28;20035;-78
2023/09/30 07:52:21;;;;;;;25.05;14.82;;;13.80;99.90;;;;;;4950032;28;20054;-80
2023/09/30 07:54:48;;;;;;;32.65;15.40;;;13.90;99.90;;;;;;4952652;28;20777;-82
2023/09/30 07:57:15;;;;;;;25.02;15.93;;;14.00;99.90;;;;;;4935037;28;20176;-82
2023/09/30 07:59:41;;;;;;;29.67;16.70;;;14.10;99.90;;;;;;4938694;28;20059;-81
2023/09/30 08:02:08;;;;;;;28.92;17.30;;;14.10;99.90;;;;;;4953795;28;20735;-79
2023/09/30 08:04:35;;;;;;;35.40;17.75;;;14.20;99.90;;;;;;4964623;28;20043;-79
2023/09/30 08:07:02;;;;;;;27.75;17.83;;;14.20;99.90;;;;;;4949699;28;20042;-78
2023/09/30 08:09:29;;;;;;;29.70;19.30;;;14.20;99.90;;;;;;4935564;28;20412;-82
2023/09/30 08:11:56;;;;;;;29.38;19.02;;;14.20;99.90;;;;;;4958878;28;20043;-82
2023/09/30 08:14:23;;;;;;;28.50;18.83;;;14.30;99.90;;;;;;4936150;28;20046;-82
2023/09/30 08:16:50;;;;;;;30.17;19.08;;;14.60;99.90;;;;;;4964638;28;20039;-78
2023/09/30 08:19:17;;;;;;;27.80;19.00;;;14.90;99.90;;;;;;4939858;28;20078;-79
2023/09/30 08:21:44;;;;;;;28.33;21.35;;;15.10;99.90;;;;;;4933314;28;20105;-80
2023/09/30 08:24:11;;;;;;;37.20;22.58;;;15.00;99.90;;;;;;4951303;28;20126;-79
2023/09/30 08:26:38;;;;;;;35.35;22.05;;;15.00;99.90;;;;;;4947180;28;20615;-79
2023/09/30 08:29:06;;;;;;;36.28;21.35;;;14.90;99.90;;;;;;4947844;28;20078;-80
2023/09/30 08:31:33;;;;;;;30.58;20.02;;;14.80;99.90;;;;;;4956687;28;20035;-79
2023/09/30 08:34:03;;;;;;;37.00;21.13;;;14.70;99.90;;;;;;4944021;28;20043;-79
2023/09/30 08:36:31;;;;;;;37.65;22.42;;;14.80;99.90;;;;;;4966811;28;20050;-80
2023/09/30 08:38:58;;;;;;;27.67;20.88;;;14.70;99.90;;;;;;4935240;28;20513;-80
2023/09/30 08:41:33;;;;;;;36.15;21.30;;;14.90;99.90;;;;;;4932793;28;20130;-78
2023/09/30 08:44:02;;;;;;;34.80;20.52;;;15.00;99.90;;;;;;4947716;28;20043;-78
2023/09/30 08:46:34;;;;;;;31.55;20.77;;;15.00;99.90;;;;;;4954995;28;20101;-78
2023/09/30 08:49:03;;;;;;;31.05;21.85;;;15.40;99.90;;;;;;4958551;28;20553;-79
2023/09/30 08:51:31;;;;;;;27.45;21.33;;;15.70;99.90;;;;;;4956507;28;20078;-78
2023/09/30 08:53:59;;;;;;;23.92;21.45;;;16.00;99.90;;;;;;4943109;28;20051;-81
2023/09/30 08:56:34;;;;;;;27.42;22.60;;;16.20;99.90;;;;;;4956401;28;20062;-77
2023/09/30 08:59:03;;;;;;;33.60;21.88;;;16.50;99.90;;;;;;4963831;28;20751;-80
2023/09/30 09:01:31;;;;;;;34.63;22.80;;;16.80;99.90;;;;;;4940136;28;20050;-80
2023/09/30 09:03:58;;;;;;;29.92;21.85;;;16.80;99.90;;;;;;4942766;28;20102;-80
2023/09/30 09:06:26;;;;;;;30.50;23.65;;;17.10;99.90;;;;;;4960659;28;20042;-81
2023/09/30 09:08:53;;;;;;;26.70;23.80;;;17.20;99.90;;;;;;4987288;28;20106;-81
2023/09/30 09:11:23;;;;;;;27.35;24.45;;;17.00;99.90;;;;;;4981743;28;20038;-81
2023/09/30 09:13:55;;;;;;;29.42;24.88;;;17.00;99.90;;;;;;4974076;28;20102;-79
2023/09/30 09:16:24;;;;;;;26.65;23.77;;;17.00;99.90;;;;;;4968164;28;21798;-77
2023/09/30 09:18:51;;;;;;;30.05;23.58;;;16.90;99.90;;;;;;4967535;28;20034;-78
2023/09/30 09:21:20;;;;;;;27.83;24.33;;;16.80;99.90;;;;;;4969588;28;20054;-78
2023/09/30 09:23:49;;;;;;;27.65;24.73;;;16.50;99.90;;;;;;4946434;28;21747;-78
2023/09/30 09:26:31;;;;;;;27.13;23.55;;;16.40;99.90;;;;;;4966138;28;20054;-78
2023/09/30 09:29:04;;;;;;;27.30;24.88;;;16.40;99.90;;;;;;4967671;28;20042;-78
2023/09/30 09:31:36;;;;;;;31.40;25.30;;;16.20;99.90;;;;;;4959225;28;20077;-78
2023/09/30 09:34:12;;;;;;;26.52;23.88;;;16.20;99.90;;;;;;4974530;28;20064;-79
2023/09/30 09:36:40;;;;;;;30.70;24.48;;;16.40;99.90;;;;;;4960542;28;20062;-78
2023/09/30 09:39:07;;;;;;;26.85;24.15;;;16.50;99.90;;;;;;4946991;28;20066;-79
2023/09/30 09:41:52;;;;;;;30.55;24.30;;;16.30;99.90;;;;;;4963376;28;20034;-79
2023/09/30 09:44:25;;;;;;;28.83;25.80;;;16.30;99.90;;;;;;4967634;28;20047;-80
2023/09/30 09:46:51;;;;;;;29.70;24.35;;;16.30;99.90;;;;;;4963555;28;20040;-80
2023/09/30 09:49:20;;;;;;;28.52;25.00;;;16.30;99.90;;;;;;4978566;28;20035;-79
2023/09/30 09:51:48;;;;;;;27.60;24.23;;;16.10;99.90;;;;;;4973110;28;20161;-79
2023/09/30 09:54:16;;;;;;;28.40;23.85;;;16.10;99.90;;;;;;4974830;28;20062;-78
2023/09/30 09:56:45;;;;;;;29.23;23.30;;;16.10;99.90;;;;;;4970646;28;20049;-78
2023/09/30 09:59:13;;;;;;;29.63;25.35;;;16.10;99.90;;;;;;4959862;28;20041;-80
2023/09/30 10:01:42;;;;;;;29.33;24.42;;;16.20;99.90;;;;;;4938020;28;20050;-77
2023/09/30 10:04:11;;;;;;;26.77;24.30;;;16.50;99.90;;;;;;4940109;28;20166;-76
2023/09/30 10:06:41;;;;;;;26.35;23.58;;;16.80;99.90;;;;;;4963295;28;20047;-76
2023/09/30 10:09:10;;;;;;;26.20;23.77;;;17.10;99.90;;;;;;4982052;28;20578;-78
2023/09/30 10:11:39;;;;;;;29.38;24.63;;;17.00;99.90;;;;;;4934230;28;20118;-77
2023/09/30 10:14:12;;;;;;;28.73;23.95;;;17.00;99.90;;;;;;4965835;28;20051;-78
2023/09/30 10:16:42;;;;;;;27.23;24.40;;;17.20;99.90;;;;;;4945668;28;20052;-77
2023/09/30 10:19:14;;;;;;;27.08;24.23;;;17.50;99.90;;;;;;4944601;28;20342;-77
2023/09/30 10:22:15;;;;;;;25.77;23.10;;;17.70;99.90;;;;;;4923839;28;20069;-77
2023/09/30 10:24:43;;;;;;;28.95;23.40;;;18.00;99.90;;;;;;4957195;28;20043;-77
2023/09/30 10:27:22;;;;;;;25.67;22.45;;;18.30;99.90;;;;;;4936893;28;20067;-77
2023/09/30 10:30:03;;;;;;;25.20;22.70;;;18.30;99.90;;;;;;4935352;28;20061;-76
2023/09/30 10:32:56;;;;;;;25.55;22.98;;;18.50;99.90;;;;;;4955742;28;20072;-76
2023/09/30 10:35:26;;;;;;;26.10;23.50;;;18.80;99.90;;;;;;4952027;28;20047;-77
2023/09/30 10:38:22;;;;;;;25.30;22.80;;;19.10;99.90;;;;;;4963534;28;20787;-76
2023/09/30 10:40:50;;;;;;;24.83;22.63;;;19.60;99.90;;;;;;4973910;28;20043;-77
2023/09/30 10:43:30;;;;;;;27.27;24.45;;;19.30;99.90;;;;;;4955978;28;20043;-77
2023/09/30 10:45:58;;;;;;;28.48;23.70;;;18.90;99.90;;;;;;4950774;28;20046;-78
2023/09/30 10:48:25;;;;;;;28.23;23.52;;;18.50;99.90;;;;;;4956342;28;20157;-78
2023/09/30 10:50:55;;;;;;;27.88;24.45;;;18.10;99.90;;;;;;4984966;28;20047;-79
2023/09/30 10:53:22;;;;;;;24.08;22.13;;;18.00;99.90;;;;;;4957175;28;20073;-78
2023/09/30 10:56:00;;;;;;;25.45;22.98;;;18.10;99.90;;;;;;4946455;28;20142;-77
2023/09/30 10:58:45;;;;;;;25.80;23.33;;;18.20;99.90;;;;;;4947847;28;20050;-77
2023/09/30 11:01:15;;;;;;;24.75;22.48;;;18.50;99.90;;;;;;4960127;28;20509;-77
2023/09/30 11:03:42;;;;;;;25.48;22.98;;;18.70;99.90;;;;;;4962851;28;20118;-76
2023/09/30 11:06:17;;;;;;;25.23;22.83;;;18.90;99.90;;;;;;4949076;28;20169;-77
2023/09/30 11:08:50;;;;;;;26.17;23.75;;;19.10;99.90;;;;;;4957302;28;20094;-77
2023/09/30 11:11:17;;;;;;;26.77;24.15;;;19.00;99.90;;;;;;4939047;28;20050;-77
2023/09/30 11:13:44;;;;;;;26.13;23.55;;;19.00;99.90;;;;;;4935107;28;20070;-77
2023/09/30 11:16:12;;;;;;;26.15;23.88;;;19.20;99.90;;;;;;4950979;28;20047;-78
2023/09/30 11:18:39;;;;;;;25.98;23.77;;;18.80;99.90;;;;;;4950470;28;20051;-77
2023/09/30 11:21:09;;;;;;;25.60;23.15;;;18.70;99.90;;;;;;4939702;28;20121;-77
2023/09/30 11:23:37;;;;;;;25.50;23.17;;;18.90;99.90;;;;;;4957340;28;20047;-78
2023/09/30 11:26:05;;;;;;;24.80;22.30;;;18.90;99.90;;;;;;4922136;28;20043;-77
2023/09/30 11:28:50;;;;;;;27.17;22.35;;;18.90;99.90;;;;;;4940154;28;20046;-77
2023/09/30 11:31:18;;;;;;;23.00;21.08;;;18.70;99.90;;;;;;4955130;28;20039;-78
2023/09/30 11:33:50;;;;;;;24.20;22.05;;;18.60;99.90;;;;;;4926676;28;20049;-78
2023/09/30 11:36:22;;;;;;;25.20;22.73;;;18.10;99.90;;;;;;4945295;28;20039;-78
2023/09/30 11:38:50;;;;;;;25.60;23.50;;;18.00;99.90;;;;;;4940337;28;20042;-79
2023/09/30 11:41:19;;;;;;;26.63;24.13;;;17.90;99.90;;;;;;4926280;28;20039;-79
2023/09/30 11:44:16;;;;;;;25.02;22.90;;;17.50;99.90;;;;;;4926093;28;20404;-79
2023/09/30 11:46:59;;;;;;;25.30;23.13;;;17.30;99.90;;;;;;4953604;28;20161;-79
2023/09/30 11:49:30;;;;;;;24.77;22.52;;;17.10;99.90;;;;;;4967314;28;20066;-79
2023/09/30 11:51:59;;;;;;;24.83;22.60;;;17.00;99.90;;;;;;4942853;28;20062;-79
2023/09/30 11:54:46;;;;;;;24.52;22.42;;;16.90;99.90;;;;;;4947540;28;20133;-79
2023/09/30 11:57:18;;;;;;;24.52;22.30;;;17.00;99.90;;;;;;4948068;28;20038;-77
2023/09/30 11:59:46;;;;;;;25.05;22.85;;;16.90;99.90;;;;;;4940865;28;20073;-76
2023/09/30 12:02:15;;;;;;;25.88;23.67;;;17.00;99.90;;;;;;4945422;28;20086;-76
2023/09/30 12:04:44;;;;;;;26.15;23.48;;;17.50;99.90;;;;;;4933229;28;20031;-76
2023/09/30 12:07:12;;;;;;;26.52;23.95;;;18.00;99.90;;;;;;4907053;28;20055;-76
2023/09/30 12:09:39;;;;;;;26.17;23.70;;;18.50;99.90;;;;;;4921360;28;20367;-75
2023/09/30 12:12:11;;;;;;;25.38;23.20;;;18.80;99.90;;;;;;4919390;29;20051;-76
2023/09/30 12:14:39;;;;;;;26.33;23.88;;;18.80;99.90;;;;;;4913985;28;20067;-76
2023/09/30 12:17:10;;;;;;;25.70;23.58;;;19.20;99.90;;;;;;4945174;28;20039;-76
2023/09/30 12:19:40;;;;;;;26.35;23.98;;;19.60;99.90;;;;;;4949092;28;20133;-75
2023/09/30 12:22:10;;;;;;;26.40;23.90;;;19.60;99.90;;;;;;4948311;28;20058;-77
2023/09/30 12:24:37;;;;;;;26.90;24.27;;;19.30;99.90;;;;;;4939524;28;20137;-76
2023/09/30 12:27:04;;;;;;;25.25;23.17;;;19.40;99.90;;;;;;4916157;28;20051;-76
2023/09/30 12:29:32;;;;;;;25.67;23.60;;;19.70;99.90;;;;;;4948627;28;20049;-76
2023/09/30 12:31:59;;;;;;;26.27;23.70;;;19.70;99.90;;;;;;4946245;28;20046;-77
2023/09/30 12:34:26;;;;;;;26.35;23.85;;;19.70;99.90;;;;;;4923327;28;20049;-77
2023/09/30 12:36:55;;;;;;;26.02;23.75;;;19.60;99.90;;;;;;4934142;28;20128;-80